createdAt,value
2022-09-23T00:01:57.815Z,84.77
2022-09-23T00:05:12.177Z,85.20
2022-09-23T00:08:20.171Z,85.19
2022-09-23T00:11:36.164Z,85.51
2022-09-23T00:14:51.145Z,85.10
2022-09-23T00:17:59.181Z,85.04
2022-09-23T00:21:11.382Z,85.52
2022-09-23T00:24:19.168Z,85.62
2022-09-23T00:27:29.051Z,86.09
2022-09-23T00:30:37.196Z,86.30
2022-09-23T00:33:52.224Z,86.36
2022-09-23T00:37:07.172Z,87.25
2022-09-23T00:40:16.200Z,87.70
2022-09-23T00:43:58.166Z,87.89
2022-09-23T00:47:21.178Z,88.49
2022-09-23T00:50:36.183Z,88.71
2022-09-23T00:53:59.233Z,88.81
2022-09-23T00:57:15.159Z,89.08
2022-09-23T01:00:30.156Z,89.36
2022-09-23T01:03:38.735Z,89.79
2022-09-23T01:06:47.160Z,90.23
2022-09-23T01:09:57.024Z,90.62
2022-09-23T01:13:23.163Z,91.25
2022-09-23T01:16:47.209Z,91.50
2022-09-23T01:20:35.150Z,91.97
2022-09-23T01:24:15.388Z,92.23
2022-09-23T01:27:34.160Z,92.87
2022-09-23T01:31:29.955Z,92.95
2022-09-23T01:34:54.169Z,93.03
2022-09-23T01:38:20.544Z,92.89
2022-09-23T01:42:08.168Z,92.40
2022-09-23T01:45:31.424Z,91.99
2022-09-23T01:48:59.263Z,92.02
2022-09-23T01:52:22.238Z,92.46
2022-09-23T01:55:40.154Z,92.35
2022-09-23T01:59:23.265Z,92.55
2022-09-23T02:02:41.246Z,92.57
2022-09-23T02:06:15.168Z,92.39
2022-09-23T02:09:28.943Z,92.79
2022-09-23T02:12:42.148Z,92.34
2022-09-23T02:16:02.163Z,92.46
2022-09-23T02:19:13.339Z,92.47
2022-09-23T02:22:35.193Z,92.46
2022-09-23T02:26:05.896Z,92.09
2022-09-23T02:29:26.163Z,92.37
2022-09-23T02:33:01.173Z,92.50
2022-09-23T02:36:25.159Z,92.39
2022-09-23T02:39:48.174Z,92.37
2022-09-23T02:43:32.172Z,92.62
2022-09-23T02:46:34.470Z,92.62
2022-09-23T02:49:49.161Z,92.70
2022-09-23T02:52:50.947Z,92.77
2022-09-23T02:56:07.173Z,93.19
2022-09-23T02:59:16.171Z,92.76
2022-09-23T03:03:15.934Z,92.90
2022-09-23T03:06:44.173Z,92.91
2022-09-23T03:10:14.158Z,92.79
2022-09-23T03:13:45.201Z,93.32
2022-09-23T03:17:09.155Z,92.75
2022-09-23T03:20:29.173Z,92.84
2022-09-23T03:23:40.604Z,92.67
2022-09-23T03:26:53.156Z,92.79
2022-09-23T03:30:03.544Z,92.57
2022-09-23T03:33:21.205Z,92.17
2022-09-23T03:36:47.155Z,92.42
2022-09-23T03:40:01.745Z,92.52
2022-09-23T03:43:17.163Z,92.79
2022-09-23T03:46:27.057Z,93.01
2022-09-23T03:49:45.159Z,93.40
2022-09-23T03:52:54.055Z,93.93
2022-09-23T03:56:16.180Z,94.10
2022-09-23T03:59:24.180Z,93.99
2022-09-23T04:02:33.096Z,93.92
2022-09-23T04:05:41.176Z,93.67
2022-09-23T04:08:49.693Z,93.83
2022-09-23T04:11:59.180Z,94.12
2022-09-23T04:15:07.991Z,94.00
2022-09-23T04:18:23.199Z,93.93
2022-09-23T04:21:31.189Z,94.15
2022-09-23T04:24:39.797Z,93.93
2022-09-23T04:27:54.170Z,94.18
2022-09-23T04:30:55.946Z,94.19
2022-09-23T04:34:11.176Z,94.27
2022-09-23T04:37:26.228Z,94.85
2022-09-23T04:40:36.487Z,95.04
2022-09-23T04:43:52.176Z,95.14
2022-09-23T04:47:00.768Z,95.27
2022-09-23T04:50:09.189Z,95.70
2022-09-23T04:53:24.160Z,95.89
2022-09-23T04:56:32.427Z,96.22
2022-09-23T04:59:47.175Z,96.34
2022-09-23T05:02:55.697Z,96.58
2022-09-23T05:06:05.182Z,96.70
2022-09-23T05:09:16.411Z,96.60
2022-09-23T05:12:31.178Z,96.73
2022-09-23T05:15:39.192Z,96.70
2022-09-23T05:18:55.151Z,96.44
2022-09-23T05:22:10.186Z,96.47
2022-09-23T05:25:18.166Z,96.52
2022-09-23T05:28:27.958Z,96.27
2022-09-23T05:31:37.222Z,96.18
2022-09-23T05:34:45.645Z,96.08
2022-09-23T05:38:00.178Z,96.29
2022-09-23T05:41:12.158Z,95.67
2022-09-23T05:44:27.200Z,95.17
2022-09-23T05:47:42.368Z,95.21
2022-09-23T05:50:58.218Z,93.78
2022-09-23T05:54:13.396Z,93.60
2022-09-23T05:57:28.660Z,93.53
2022-09-23T06:00:39.309Z,93.37
2022-09-23T06:03:58.019Z,92.52
2022-09-23T06:07:14.144Z,92.38
2022-09-23T06:10:29.174Z,91.85
2022-09-23T06:13:30.875Z,91.59
2022-09-23T06:16:45.338Z,90.99
2022-09-23T06:19:54.346Z,90.40
2022-09-23T06:23:10.681Z,90.55
2022-09-23T06:26:18.881Z,89.95
2022-09-23T06:29:27.164Z,89.71
2022-09-23T06:32:42.157Z,89.49
2022-09-23T06:35:58.588Z,88.94
2022-09-23T06:39:14.229Z,88.05
2022-09-23T06:42:16.622Z,87.97
2022-09-23T06:45:32.148Z,87.33
2022-09-23T06:48:45.932Z,87.11
2022-09-23T06:52:01.149Z,87.35
2022-09-23T06:55:16.174Z,86.44
2022-09-23T06:58:24.223Z,86.34
2022-09-23T07:01:39.319Z,85.08
2022-09-23T07:04:47.702Z,84.53
2022-09-23T07:07:56.163Z,83.42
2022-09-23T07:11:07.090Z,83.32
2022-09-23T07:14:15.204Z,82.84
2022-09-23T07:17:24.447Z,81.33
2022-09-23T07:20:39.163Z,80.87
2022-09-23T07:23:52.204Z,80.16
2022-09-23T07:27:00.678Z,79.16
2022-09-23T07:30:23.196Z,77.21
2022-09-23T07:33:32.097Z,76.35
2022-09-23T07:36:47.159Z,75.51
2022-09-23T07:39:55.172Z,74.70
2022-09-23T07:43:03.766Z,74.27
2022-09-23T07:46:16.264Z,73.07
2022-09-23T07:49:25.950Z,71.01
2022-09-23T07:52:45.175Z,69.94
2022-09-23T07:56:01.179Z,69.43
2022-09-23T07:59:14.418Z,68.63
2022-09-23T08:02:29.199Z,67.15
2022-09-23T08:05:37.755Z,66.75
2022-09-23T08:08:50.003Z,66.16
2022-09-23T08:12:12.732Z,66.31
2022-09-23T08:15:23.733Z,64.83
2022-09-23T08:18:33.181Z,63.84
2022-09-23T08:21:42.420Z,63.06
2022-09-23T08:24:52.843Z,61.94
2022-09-23T08:28:09.172Z,62.14
2022-09-23T08:31:17.720Z,61.89
2022-09-23T08:34:34.163Z,61.14
2022-09-23T08:38:01.305Z,60.69
2022-09-23T08:41:23.166Z,61.57
2022-09-23T08:44:44.174Z,59.49
2022-09-23T08:48:00.254Z,60.29
2022-09-23T08:51:21.226Z,58.19
2022-09-23T08:54:26.686Z,57.33
2022-09-23T08:58:14.007Z,58.12
2022-09-23T09:01:52.275Z,57.71
2022-09-23T09:05:05.995Z,57.75
2022-09-23T09:08:25.175Z,56.95
2022-09-23T09:11:38.574Z,56.02
2022-09-23T09:14:54.197Z,56.24
2022-09-23T09:18:19.184Z,55.96
2022-09-23T09:21:39.883Z,54.83
2022-09-23T09:24:51.177Z,55.95
2022-09-23T09:28:36.189Z,58.59
2022-09-23T09:31:53.186Z,60.95
2022-09-23T09:35:22.170Z,59.72
2022-09-23T09:38:30.787Z,59.04
2022-09-23T09:41:39.170Z,57.43
2022-09-23T09:44:59.185Z,55.85
2022-09-23T09:48:42.167Z,55.66
2022-09-23T09:51:43.952Z,54.74
2022-09-23T09:54:59.130Z,53.32
2022-09-23T09:58:13.857Z,52.57
2022-09-23T10:01:26.131Z,52.38
2022-09-23T10:04:42.143Z,53.77
2022-09-23T10:07:57.153Z,52.81
2022-09-23T10:10:58.855Z,51.38
2022-09-23T10:14:24.175Z,53.34
2022-09-23T10:17:32.040Z,52.68
2022-09-23T10:20:47.109Z,52.13
2022-09-23T10:24:05.144Z,52.19
2022-09-23T10:27:16.108Z,50.54
2022-09-23T10:30:33.159Z,50.57
2022-09-23T10:33:47.831Z,49.47
2022-09-23T10:37:09.220Z,50.90
2022-09-23T10:40:26.138Z,50.12
2022-09-23T10:43:59.818Z,49.93
2022-09-23T10:47:14.153Z,50.35
2022-09-23T10:50:35.158Z,48.47
2022-09-23T10:54:06.002Z,47.70
2022-09-23T10:58:07.145Z,46.86
2022-09-23T11:01:43.174Z,49.39
2022-09-23T11:05:13.395Z,51.87
2022-09-23T11:08:31.159Z,52.02
2022-09-23T11:11:52.915Z,53.83
2022-09-23T11:15:07.157Z,52.73
2022-09-23T11:18:47.146Z,52.93
2022-09-23T11:22:19.183Z,51.88
2022-09-23T11:25:52.189Z,50.56
2022-09-23T11:29:29.158Z,50.09
2022-09-23T11:33:04.195Z,52.65
2022-09-23T11:36:18.195Z,53.06
2022-09-23T11:39:37.172Z,51.94
2022-09-23T11:42:54.427Z,51.58
2022-09-23T11:46:32.160Z,49.46
2022-09-23T11:49:53.159Z,48.69
2022-09-23T11:53:17.345Z,46.59
2022-09-23T11:56:50.148Z,46.24
2022-09-23T12:00:19.186Z,44.49
2022-09-23T12:03:40.182Z,45.68
2022-09-23T12:07:17.200Z,45.92
2022-09-23T12:10:19.692Z,44.76
2022-09-23T12:13:49.207Z,47.41
2022-09-23T12:17:13.146Z,48.33
2022-09-23T12:20:36.324Z,49.80
2022-09-23T12:24:00.246Z,47.68
2022-09-23T12:27:23.193Z,46.69
2022-09-23T12:30:36.582Z,46.52
2022-09-23T12:34:00.318Z,45.91
2022-09-23T12:37:08.696Z,44.38
2022-09-23T12:40:43.317Z,43.05
2022-09-23T12:44:28.190Z,42.98
2022-09-23T12:47:40.036Z,42.25
2022-09-23T12:51:12.308Z,43.55
2022-09-23T12:54:24.387Z,42.77
2022-09-23T12:57:47.209Z,44.02
2022-09-23T13:01:07.173Z,44.37
2022-09-23T13:04:38.223Z,42.79
2022-09-23T13:07:47.052Z,43.26
2022-09-23T13:11:07.188Z,41.71
2022-09-23T13:14:22.848Z,42.24
2022-09-23T13:17:39.400Z,41.01
2022-09-23T13:20:56.196Z,41.80
2022-09-23T13:24:34.123Z,41.20
2022-09-23T13:27:54.202Z,41.51
2022-09-23T13:31:06.014Z,43.70
2022-09-23T13:34:26.190Z,45.19
2022-09-23T13:37:48.203Z,44.76
2022-09-23T13:41:00.681Z,45.05
2022-09-23T13:44:23.192Z,45.29
2022-09-23T13:47:27.751Z,44.89
2022-09-23T13:50:45.197Z,46.53
2022-09-23T13:54:02.208Z,46.29
2022-09-23T13:57:27.377Z,46.39
2022-09-23T14:00:49.252Z,46.53
2022-09-23T14:04:04.217Z,47.34
2022-09-23T14:07:15.472Z,48.23
2022-09-23T14:10:28.204Z,46.52
2022-09-23T14:13:42.896Z,45.63
2022-09-23T14:16:51.320Z,47.19
2022-09-23T14:20:06.194Z,46.52
2022-09-23T14:23:19.305Z,46.57
2022-09-23T14:26:27.816Z,45.88
2022-09-23T14:29:40.220Z,48.33
2022-09-23T14:32:55.242Z,47.76
2022-09-23T14:36:05.180Z,49.50
2022-09-23T14:39:22.208Z,50.33
2022-09-23T14:42:44.222Z,48.66
2022-09-23T14:45:50.124Z,51.43
2022-09-23T14:49:17.226Z,52.83
2022-09-23T14:52:19.066Z,53.30
2022-09-23T14:55:36.263Z,52.67
2022-09-23T14:58:54.219Z,53.90
2022-09-23T15:02:45.242Z,54.10
2022-09-23T15:06:12.209Z,55.78
2022-09-23T15:09:28.236Z,54.31
2022-09-23T15:12:37.339Z,53.96
2022-09-23T15:15:52.236Z,55.18
2022-09-23T15:19:07.241Z,50.70
2022-09-23T15:22:22.239Z,49.89
2022-09-23T15:25:46.227Z,47.53
2022-09-23T15:29:02.234Z,48.21
2022-09-23T15:32:10.685Z,49.36
2022-09-23T15:35:21.233Z,48.48
2022-09-23T15:38:29.752Z,48.89
2022-09-23T15:41:44.235Z,48.57
2022-09-23T15:44:52.219Z,49.45
2022-09-23T15:48:05.616Z,49.53
2022-09-23T15:51:15.221Z,52.50
2022-09-23T15:54:30.243Z,52.25
2022-09-23T15:57:45.472Z,53.91
2022-09-23T16:01:02.471Z,55.88
2022-09-23T16:04:04.649Z,55.27
2022-09-23T16:07:19.247Z,57.37
2022-09-23T16:10:34.229Z,58.82
2022-09-23T16:13:49.255Z,59.07
2022-09-23T16:17:04.387Z,58.52
2022-09-23T16:20:06.533Z,55.59
2022-09-23T16:23:30.317Z,56.01
2022-09-23T16:26:38.731Z,56.04
2022-09-23T16:29:47.274Z,57.25
2022-09-23T16:33:02.245Z,57.36
2022-09-23T16:36:05.612Z,58.42
2022-09-23T16:39:21.258Z,58.58
2022-09-23T16:42:29.821Z,57.55
2022-09-23T16:45:38.340Z,58.72
2022-09-23T16:48:52.310Z,58.25
2022-09-23T16:52:07.266Z,61.21
2022-09-23T16:55:18.245Z,59.99
2022-09-23T16:58:33.453Z,58.35
2022-09-23T17:01:42.299Z,59.38
2022-09-23T17:04:50.777Z,59.64
2022-09-23T17:07:59.266Z,61.01
2022-09-23T17:11:09.233Z,61.29
2022-09-23T17:14:24.245Z,62.02
2022-09-23T17:17:32.243Z,63.15
2022-09-23T17:20:47.307Z,62.54
2022-09-23T17:23:56.571Z,63.59
2022-09-23T17:27:11.261Z,64.46
2022-09-23T17:30:13.600Z,65.18
2022-09-23T17:33:28.293Z,66.50
2022-09-23T17:36:36.860Z,66.65
2022-09-23T17:39:51.245Z,67.18
2022-09-23T17:42:53.065Z,67.21
2022-09-23T17:46:16.320Z,67.86
2022-09-23T17:49:31.244Z,69.11
2022-09-23T17:52:33.099Z,69.86
2022-09-23T17:55:48.244Z,70.92
2022-09-23T17:59:03.594Z,71.95
2022-09-23T18:02:15.551Z,71.84
2022-09-23T18:05:30.270Z,71.92
2022-09-23T18:08:39.602Z,72.31
2022-09-23T18:11:51.254Z,73.50
2022-09-23T18:14:59.818Z,74.43
2022-09-23T18:18:15.452Z,74.83
2022-09-23T18:21:17.274Z,75.44
2022-09-23T18:24:33.469Z,75.83
2022-09-23T18:27:35.628Z,76.36
2022-09-23T18:31:03.296Z,76.18
2022-09-23T18:34:13.868Z,77.62
2022-09-23T18:37:22.297Z,77.45
2022-09-23T18:40:30.843Z,78.14
2022-09-23T18:43:48.308Z,78.21
2022-09-23T18:46:50.529Z,78.99
2022-09-23T18:50:05.602Z,80.29
2022-09-23T18:53:10.580Z,78.98
2022-09-23T18:56:25.268Z,79.70
2022-09-23T18:59:49.243Z,80.10
2022-09-23T19:02:52.112Z,81.18
2022-09-23T19:06:11.405Z,81.41
2022-09-23T19:09:24.251Z,82.17
2022-09-23T19:12:39.269Z,82.44
2022-09-23T19:15:54.325Z,82.70
2022-09-23T19:19:03.261Z,82.87
2022-09-23T19:22:18.275Z,83.52
2022-09-23T19:25:20.014Z,83.78
2022-09-23T19:28:35.263Z,84.07
2022-09-23T19:31:53.352Z,83.69
2022-09-23T19:34:55.114Z,83.66
2022-09-23T19:38:13.393Z,84.65
2022-09-23T19:41:22.307Z,85.07
2022-09-23T19:44:37.266Z,85.02
2022-09-23T19:47:52.245Z,84.98
2022-09-23T19:50:54.028Z,85.41
2022-09-23T19:54:11.253Z,86.14
2022-09-23T19:57:33.262Z,85.94
2022-09-23T20:00:48.287Z,86.11
2022-09-23T20:03:57.277Z,86.67
2022-09-23T20:07:12.334Z,86.42
2022-09-23T20:10:20.947Z,86.78
2022-09-23T20:13:29.353Z,87.26
2022-09-23T20:16:37.915Z,87.81
2022-09-23T20:19:48.255Z,87.67
2022-09-23T20:23:06.262Z,87.48
2022-09-23T20:26:14.905Z,87.98
2022-09-23T20:29:23.276Z,88.32
2022-09-23T20:32:31.825Z,88.51
2022-09-23T20:35:42.266Z,88.41
2022-09-23T20:39:05.307Z,88.88
2022-09-23T20:42:07.056Z,88.93
2022-09-23T20:45:22.294Z,89.57
2022-09-23T20:48:31.103Z,90.09
2022-09-23T20:51:39.252Z,90.19
2022-09-23T20:54:47.926Z,90.61
2022-09-23T20:57:56.259Z,90.54
2022-09-23T21:01:07.520Z,90.84
2022-09-23T21:04:16.258Z,90.47
2022-09-23T21:07:31.282Z,90.41
2022-09-23T21:10:39.740Z,90.58
2022-09-23T21:13:55.276Z,90.69
2022-09-23T21:17:10.296Z,91.10
2022-09-23T21:20:12.122Z,92.06
2022-09-23T21:23:36.241Z,91.48
2022-09-23T21:26:51.274Z,92.19
2022-09-23T21:29:53.216Z,91.93
2022-09-23T21:33:11.278Z,91.69
2022-09-23T21:36:20.080Z,91.98
2022-09-23T21:39:28.279Z,92.63
2022-09-23T21:42:43.376Z,93.07
2022-09-23T21:45:45.182Z,93.56
2022-09-23T21:49:02.232Z,93.61
2022-09-23T21:52:10.844Z,93.21
2022-09-23T21:55:19.250Z,93.75
2022-09-23T21:58:42.252Z,94.33
2022-09-23T22:01:54.210Z,93.59
2022-09-23T22:05:02.265Z,93.15
2022-09-23T22:08:10.815Z,93.48
2022-09-23T22:11:21.262Z,93.43
2022-09-23T22:14:36.249Z,93.44
2022-09-23T22:17:39.086Z,93.93
2022-09-23T22:20:57.012Z,94.21
2022-09-23T22:24:07.451Z,94.48
2022-09-23T22:27:26.959Z,94.37
2022-09-23T22:30:41.267Z,94.39
2022-09-23T22:33:43.019Z,94.11
2022-09-23T22:36:58.247Z,94.00
2022-09-23T22:40:07.372Z,94.30
2022-09-23T22:43:15.754Z,94.61
2022-09-23T22:46:24.318Z,94.75
2022-09-23T22:49:39.260Z,94.67
2022-09-23T22:52:47.270Z,94.99
2022-09-23T22:55:59.613Z,94.86
2022-09-23T22:59:21.244Z,94.84
2022-09-23T23:02:37.242Z,95.00
2022-09-23T23:05:52.298Z,95.21
2022-09-23T23:09:09.051Z,95.05
2022-09-23T23:12:21.266Z,95.42
2022-09-23T23:15:33.256Z,95.16
2022-09-23T23:18:43.284Z,94.19
2022-09-23T23:21:52.249Z,93.83
2022-09-23T23:25:07.289Z,93.87
2022-09-23T23:28:16.014Z,93.95
2022-09-23T23:31:34.344Z,94.23
2022-09-23T23:34:42.255Z,94.02
2022-09-23T23:37:50.757Z,94.00
2022-09-23T23:41:09.246Z,94.25
2022-09-23T23:44:12.317Z,94.33
2022-09-23T23:47:27.267Z,94.60
2022-09-23T23:50:42.245Z,94.68
2022-09-23T23:53:50.899Z,95.12
2022-09-23T23:56:59.278Z,95.41
